Time;durP1;ratioP1;P1;durP2;ratioP2;P2;SDS_P1;SDS_P2;PMS_P1;PMS_P2;Temp;Humidity;BMP_temperature;BMP_pressure;BME280_temperature;BME280_humidity;BME280_pressure;Samples;Min_cycle;Max_cycle;Signal;HPM_P1;HPM_P2
2021/05/01 00:04:18;;;;;;;31.80;22.00;;;;;3.30;100985.00;;;;10526874;28;20195;-73
2021/05/01 00:09:19;;;;;;;32.20;22.13;;;;;3.20;100977.00;;;;10510193;28;20227;-72
2021/05/01 00:14:21;;;;;;;33.10;22.10;;;;;3.10;100973.00;;;;10527445;28;20258;-73
2021/05/01 00:19:22;;;;;;;31.63;22.07;;;;;3.00;100975.00;;;;10510296;28;20655;-73
2021/05/01 00:24:24;;;;;;;36.63;22.73;;;;;2.90;100962.00;;;;10510345;28;20597;-72
2021/05/01 00:29:25;;;;;;;33.87;22.17;;;;;2.80;100966.00;;;;10543167;28;20201;-73
2021/05/01 00:34:26;;;;;;;32.00;23.30;;;;;2.80;100965.00;;;;10526496;28;20230;-73
2021/05/01 00:39:28;;;;;;;35.37;24.47;;;;;2.80;100958.00;;;;10526598;28;20191;-73
2021/05/01 00:44:29;;;;;;;38.13;25.17;;;;;2.80;100952.00;;;;10543180;28;20197;-72
2021/05/01 00:49:31;;;;;;;38.90;25.20;;;;;2.70;100959.00;;;;10525568;28;20252;-73
2021/05/01 00:54:32;;;;;;;34.27;24.53;;;;;2.60;100957.00;;;;10508580;28;20258;-73
2021/05/01 00:59:34;;;;;;;41.67;25.07;;;;;2.60;100972.00;;;;10508276;28;20192;-72
2021/05/01 01:04:36;;;;;;;33.30;24.03;;;;;2.50;100963.00;;;;10507336;28;20594;-73
2021/05/01 01:09:37;;;;;;;41.40;26.30;;;;;2.50;100963.00;;;;10506410;28;20208;-73
2021/05/01 01:14:38;;;;;;;40.53;25.17;;;;;2.40;100948.00;;;;10490977;28;20243;-73
2021/05/01 01:19:40;;;;;;;36.23;26.17;;;;;2.40;100951.00;;;;10541559;28;20828;-73
2021/05/01 01:24:41;;;;;;;40.67;25.27;;;;;2.40;100951.00;;;;10541113;28;20595;-73
2021/05/01 01:29:44;;;;;;;37.47;26.13;;;;;2.30;100957.00;;;;10523505;28;20205;-73
2021/05/01 01:34:45;;;;;;;44.97;28.40;;;;;2.20;100947.00;;;;10507216;28;20192;-73
2021/05/01 01:39:46;;;;;;;43.63;29.07;;;;;2.20;100944.00;;;;10507185;28;20188;-73
2021/05/01 01:44:48;;;;;;;38.57;24.93;;;;;2.10;100949.00;;;;10507231;28;20218;-72
2021/05/01 01:49:49;;;;;;;39.67;24.23;;;;;2.00;100955.00;;;;10489586;28;20205;-72
2021/05/01 01:54:50;;;;;;;35.57;24.20;;;;;1.90;100951.00;;;;10523944;28;20200;-73
2021/05/01 01:59:52;;;;;;;39.17;24.33;;;;;1.80;100946.00;;;;10522803;28;20185;-73
2021/05/01 02:04:53;;;;;;;40.60;25.83;;;;;1.80;100947.00;;;;10505727;28;20220;-73
2021/05/01 02:09:55;;;;;;;47.43;28.10;;;;;1.70;100947.00;;;;10523466;28;20208;-73
2021/05/01 02:14:57;;;;;;;46.90;28.83;;;;;1.80;100952.00;;;;10505219;28;20192;-72
2021/05/01 02:19:58;;;;;;;49.07;29.00;;;;;1.90;100946.00;;;;10539242;28;20287;-73
2021/05/01 02:25:08;;;;;;;49.07;32.20;;;;;1.90;100940.00;;;;10523609;28;20403;-72
2021/05/01 02:30:12;;;;;;;52.07;33.23;;;;;2.00;100933.00;;;;10538463;28;20231;-73
2021/05/01 02:35:17;;;;;;;53.17;30.40;;;;;2.00;100926.00;;;;10538875;28;20192;-73
2021/05/01 02:40:20;;;;;;;51.60;31.17;;;;;1.90;100931.00;;;;10521976;28;20207;-73
2021/05/01 02:45:21;;;;;;;52.00;31.73;;;;;1.90;100930.00;;;;10555410;28;20196;-72
2021/05/01 02:50:22;;;;;;;47.93;31.10;;;;;1.80;100931.00;;;;10546855;28;20220;-73
2021/05/01 02:55:24;;;;;;;52.00;29.07;;;;;1.70;100918.00;;;;10520888;28;20200;-73
2021/05/01 03:00:27;;;;;;;51.30;30.23;;;;;1.60;100916.00;;;;10487837;28;20239;-73
2021/05/01 03:05:28;;;;;;;47.03;29.90;;;;;1.60;100906.00;;;;10520062;28;20748;-72
2021/05/01 03:10:30;;;;;;;48.33;29.53;;;;;1.60;100904.00;;;;10503736;28;20209;-73
2021/05/01 03:15:31;;;;;;;45.47;29.83;;;;;1.60;100910.00;;;;10503780;28;20200;-72
2021/05/01 03:20:32;;;;;;;45.87;28.40;;;;;1.60;100896.00;;;;10520975;28;20246;-73
2021/05/01 03:25:34;;;;;;;47.00;29.10;;;;;1.50;100916.00;;;;10539033;28;20192;-74
2021/05/01 03:30:35;;;;;;;45.23;29.53;;;;;1.50;100908.00;;;;10568429;28;20225;-71
2021/05/01 03:35:37;;;;;;;45.90;28.23;;;;;1.50;100908.00;;;;10571189;28;20195;-72
2021/05/01 03:40:38;;;;;;;44.30;28.00;;;;;1.40;100903.00;;;;10536968;28;20188;-72
2021/05/01 03:45:39;;;;;;;48.47;29.13;;;;;1.40;100899.00;;;;10554149;28;20207;-72
2021/05/01 03:50:41;;;;;;;47.07;28.10;;;;;1.40;100900.00;;;;10587923;28;20212;-71
2021/05/01 03:55:42;;;;;;;42.10;27.67;;;;;1.30;100904.00;;;;10533405;28;20201;-72
2021/05/01 04:00:43;;;;;;;42.47;29.17;;;;;1.20;100901.00;;;;10561344;28;20753;-72
2021/05/01 04:05:45;;;;;;;46.50;31.37;;;;;1.20;100896.00;;;;10510600;28;20216;-72
2021/05/01 04:10:46;;;;;;;52.00;30.57;;;;;1.20;100891.00;;;;10544205;28;20257;-72
2021/05/01 04:15:47;;;;;;;47.13;29.37;;;;;1.10;100888.00;;;;10510357;28;20197;-72
2021/05/01 04:20:49;;;;;;;37.27;26.07;;;;;1.10;100894.00;;;;10526975;28;20874;-72
2021/05/01 04:25:50;;;;;;;40.90;26.40;;;;;1.00;100891.00;;;;10526928;28;20234;-72
2021/05/01 04:30:51;;;;;;;40.60;25.57;;;;;1.00;100890.00;;;;10510397;28;20212;-72
2021/05/01 04:35:53;;;;;;;43.30;26.97;;;;;1.10;100889.00;;;;10509943;28;20291;-72
2021/05/01 04:40:55;;;;;;;40.67;27.27;;;;;1.20;100901.00;;;;10526538;28;20189;-72
2021/05/01 04:45:58;;;;;;;48.57;30.23;;;;;1.30;100908.00;;;;10492486;28;20197;-72
2021/05/01 04:50:59;;;;;;;59.23;32.40;;;;;1.60;100919.00;;;;10526271;28;20216;-72
2021/05/01 04:56:01;;;;;;;48.03;31.27;;;;;1.90;100929.00;;;;10544053;28;20193;-72
2021/05/01 05:01:03;;;;;;;58.37;33.43;;;;;2.20;100932.00;;;;10502390;28;20193;-72
2021/05/01 05:06:04;;;;;;;63.87;36.53;;;;;2.50;100935.00;;;;10484208;28;20278;-72
2021/05/01 05:11:06;;;;;;;59.03;36.17;;;;;2.80;100938.00;;;;10476066;28;20212;-72
2021/05/01 05:16:07;;;;;;;66.97;38.07;;;;;3.30;100941.00;;;;10491785;28;20193;-72
2021/05/01 05:21:08;;;;;;;63.20;37.43;;;;;3.80;100953.00;;;;10518316;28;20189;-72
2021/05/01 05:26:10;;;;;;;68.27;39.57;;;;;4.30;100949.00;;;;10499969;28;20200;-72
2021/05/01 05:31:11;;;;;;;68.13;40.20;;;;;4.70;100955.00;;;;10465956;28;20622;-72
2021/05/01 05:36:12;;;;;;;66.00;40.70;;;;;5.10;100958.00;;;;10480824;28;20653;-72
2021/05/01 05:41:14;;;;;;;57.03;38.33;;;;;5.60;100949.00;;;;10516513;28;20194;-72
2021/05/01 05:46:17;;;;;;;53.63;36.07;;;;;6.10;100963.00;;;;10498627;28;20206;-72
2021/05/01 05:51:18;;;;;;;45.83;32.77;;;;;6.70;100965.00;;;;10510915;28;20556;-72
2021/05/01 05:56:21;;;;;;;44.47;31.03;;;;;7.40;100958.00;;;;10510474;28;20197;-72
2021/05/01 06:01:30;;;;;;;32.37;25.00;;;;;8.10;100949.00;;;;10499299;28;20200;-72
2021/05/01 06:06:34;;;;;;;30.30;22.37;;;;;8.80;100953.00;;;;10481409;28;20597;-72
2021/05/01 06:11:37;;;;;;;25.90;20.93;;;;;9.30;100953.00;;;;10480893;28;20190;-72
2021/05/01 06:16:39;;;;;;;25.13;19.93;;;;;9.80;100952.00;;;;10475166;28;20664;-72
2021/05/01 06:21:42;;;;;;;22.50;15.93;;;;;10.30;100941.00;;;;10480505;28;20829;-72
2021/05/01 06:26:44;;;;;;;18.07;13.57;;;;;10.60;100944.00;;;;10507923;28;20201;-73
2021/05/01 06:31:45;;;;;;;17.87;12.90;;;;;11.00;100939.00;;;;10497877;28;20250;-73
2021/05/01 06:36:47;;;;;;;14.67;10.80;;;;;11.30;100945.00;;;;10516547;28;20200;-73
2021/05/01 06:41:55;;;;;;;16.00;9.27;;;;;11.50;100940.00;;;;10516423;28;20192;-73
2021/05/01 06:46:57;;;;;;;18.87;12.30;;;;;11.40;100938.00;;;;10520540;28;20224;-73
2021/05/01 06:52:03;;;;;;;10.77;8.40;;;;;11.70;100944.00;;;;10484688;28;20262;-72
2021/05/01 06:57:05;;;;;;;13.57;10.83;;;;;11.90;100946.00;;;;10515068;28;20190;-70
2021/05/01 07:02:09;;;;;;;17.50;11.47;;;;;12.10;100945.00;;;;10508640;28;20186;-73
2021/05/01 07:07:24;;;;;;;11.13;8.93;;;;;12.50;100945.00;;;;10509931;28;20291;-73
2021/05/01 07:12:34;;;;;;;12.70;10.17;;;;;12.50;100959.00;;;;10518900;28;20668;-73
2021/05/01 07:17:39;;;;;;;11.77;9.03;;;;;12.90;100951.00;;;;10534856;28;20552;-74
2021/05/01 07:22:53;;;;;;;10.70;8.27;;;;;13.20;100948.00;;;;10513646;28;20192;-73
2021/05/01 07:28:05;;;;;;;16.53;12.40;;;;;13.40;100957.00;;;;10525177;28;20572;-72
2021/05/01 07:33:21;;;;;;;14.93;10.93;;;;;13.90;100948.00;;;;10518388;28;20200;-73
2021/05/01 07:38:24;;;;;;;17.80;9.70;;;;;14.00;100943.00;;;;10500414;28;20215;-74
2021/05/01 07:43:29;;;;;;;15.70;10.80;;;;;13.90;100950.00;;;;10542038;28;20189;-75
2021/05/01 07:48:31;;;;;;;10.23;7.80;;;;;13.80;100933.00;;;;10501033;28;20618;-75
2021/05/01 07:53:32;;;;;;;11.37;9.47;;;;;13.40;100935.00;;;;10497408;28;20643;-72
2021/05/01 07:58:33;;;;;;;15.00;9.20;;;;;13.90;100928.00;;;;10499599;28;20277;-73
2021/05/01 08:03:35;;;;;;;15.20;10.73;;;;;14.30;100917.00;;;;10489638;28;20251;-73
2021/05/01 08:08:36;;;;;;;13.23;9.80;;;;;14.80;100908.00;;;;10522103;28;20262;-73
2021/05/01 08:13:45;;;;;;;11.17;9.97;;;;;15.30;100911.00;;;;10514736;28;20258;-73
2021/05/01 08:18:54;;;;;;;11.30;9.20;;;;;15.40;100898.00;;;;10537655;28;20188;-73
2021/05/01 08:23:55;;;;;;;11.57;8.30;;;;;14.50;100913.00;;;;10509703;28;20208;-73
2021/05/01 08:28:57;;;;;;;10.87;8.37;;;;;14.60;100906.00;;;;10507451;28;20212;-73
2021/05/01 08:33:58;;;;;;;8.60;7.70;;;;;15.80;100896.00;;;;10513493;28;20277;-73
2021/05/01 08:39:02;;;;;;;9.70;7.30;;;;;16.30;100906.00;;;;10524603;28;20219;-73
2021/05/01 08:44:06;;;;;;;8.90;7.27;;;;;16.50;100918.00;;;;10543298;28;20208;-73
2021/05/01 08:49:15;;;;;;;14.23;7.60;;;;;16.40;100909.00;;;;10522911;28;20304;-73
2021/05/01 08:54:16;;;;;;;11.50;7.00;;;;;16.80;100916.00;;;;10485027;28;20202;-77
2021/05/01 08:59:19;;;;;;;8.07;6.80;;;;;17.70;100931.00;;;;10511046;28;20185;-73
2021/05/01 09:04:20;;;;;;;8.60;6.50;;;;;17.40;100925.00;;;;10511408;28;20200;-73
2021/05/01 09:09:32;;;;;;;9.13;7.37;;;;;16.90;100944.00;;;;10495847;28;20341;-74
2021/05/01 09:14:36;;;;;;;9.87;8.00;;;;;15.60;100943.00;;;;10513671;28;20228;-73
2021/05/01 09:19:39;;;;;;;12.97;9.03;;;;;16.80;100947.00;;;;10522122;28;20541;-74
2021/05/01 09:24:49;;;;;;;10.43;9.10;;;;;17.00;100940.00;;;;10497704;28;20196;-74
2021/05/01 09:29:50;;;;;;;11.70;9.57;;;;;16.30;100940.00;;;;10532259;28;20210;-73
2021/05/01 09:34:54;;;;;;;11.10;9.90;;;;;15.50;100937.00;;;;10505111;28;20227;-74
2021/05/01 09:39:59;;;;;;;12.03;10.30;;;;;15.70;100933.00;;;;10521378;28;20193;-74
2021/05/01 09:45:19;;;;;;;11.87;10.07;;;;;17.00;100933.00;;;;10493464;28;20669;-73
2021/05/01 09:50:23;;;;;;;16.00;10.30;;;;;18.30;100935.00;;;;10490171;28;20209;-73
2021/05/01 09:55:42;;;;;;;15.13;10.27;;;;;18.20;100936.00;;;;10513664;28;20197;-73
2021/05/01 10:00:44;;;;;;;12.33;9.47;;;;;16.50;100927.00;;;;10475937;28;20268;-73
2021/05/01 10:05:47;;;;;;;12.10;10.90;;;;;15.00;100939.00;;;;10532643;28;20244;-72
2021/05/01 10:10:49;;;;;;;11.63;10.47;;;;;16.50;100929.00;;;;10499533;28;20305;-73
2021/05/01 10:16:11;;;;;;;12.27;10.97;;;;;18.40;100918.00;;;;10512200;28;20203;-73
2021/05/01 10:21:24;;;;;;;12.33;11.07;;;;;17.20;100915.00;;;;10507284;28;20246;-73
2021/05/01 10:26:26;;;;;;;15.07;9.97;;;;;18.70;100918.00;;;;10534490;28;20238;-73
2021/05/01 10:31:28;;;;;;;10.67;9.67;;;;;17.30;100901.00;;;;10486874;28;20221;-73
2021/05/01 10:36:33;;;;;;;11.17;10.00;;;;;18.30;100906.00;;;;10510412;28;20196;-73
2021/05/01 10:41:35;;;;;;;9.70;8.77;;;;;19.40;100908.00;;;;10530365;28;20253;-74
2021/05/01 10:46:44;;;;;;;13.35;9.73;;;;;19.00;100900.00;;;;10458714;28;20299;-73
2021/05/01 10:51:50;;;;;;;9.80;8.85;;;;;18.00;100894.00;;;;10508540;28;20197;-74
2021/05/01 10:56:54;;;;;;;13.10;11.53;;;;;17.70;100896.00;;;;10511788;28;20390;-73
2021/05/01 11:01:59;;;;;;;11.57;10.57;;;;;18.10;100894.00;;;;10531770;28;20717;-73
2021/05/01 11:07:19;;;;;;;12.68;11.48;;;;;19.80;100885.00;;;;10513760;28;20220;-73
2021/05/01 11:12:24;;;;;;;12.32;11.23;;;;;20.00;100880.00;;;;10532632;28;20293;-73
2021/05/01 11:17:31;;;;;;;11.88;10.45;;;;;19.60;100883.00;;;;10481170;28;20207;-73
2021/05/01 11:22:35;;;;;;;13.02;11.75;;;;;18.20;100876.00;;;;10482990;28;20600;-73
2021/05/01 11:27:38;;;;;;;11.20;9.68;;;;;17.80;100882.00;;;;10520461;28;20478;-73
2021/05/01 11:32:40;;;;;;;13.27;12.00;;;;;16.40;100877.00;;;;10491084;28;20205;-73
2021/05/01 11:38:01;;;;;;;12.90;11.53;;;;;17.30;100879.00;;;;10530734;28;20185;-73
2021/05/01 11:43:02;;;;;;;13.67;12.27;;;;;17.70;100884.00;;;;10505732;28;20498;-73
2021/05/01 11:48:07;;;;;;;13.17;11.97;;;;;16.60;100890.00;;;;10499526;28;20236;-73
2021/05/01 11:53:35;;;;;;;13.37;11.57;;;;;16.30;100900.00;;;;10508631;28;20205;-73
2021/05/01 11:58:44;;;;;;;17.80;11.23;;;;;15.90;100897.00;;;;10471398;28;20197;-73
2021/05/01 12:04:04;;;;;;;12.77;11.27;;;;;15.80;100894.00;;;;10549202;28;20212;-73
2021/05/01 12:09:11;;;;;;;10.27;9.27;;;;;15.50;100901.00;;;;10521692;28;20292;-73
2021/05/01 12:14:14;;;;;;;10.47;9.43;;;;;15.00;100896.00;;;;10537343;28;20226;-73
2021/05/01 12:19:26;;;;;;;10.83;9.63;;;;;15.10;100885.00;;;;10523941;28;20640;-72
2021/05/01 12:24:30;;;;;;;11.40;8.27;;;;;15.80;100879.00;;;;10546282;28;20275;-73
2021/05/01 12:29:34;;;;;;;11.00;8.90;;;;;16.30;100878.00;;;;10524123;28;20558;-73
2021/05/01 12:34:51;;;;;;;11.53;9.13;;;;;16.40;100871.00;;;;10532923;28;20632;-73
2021/05/01 12:39:53;;;;;;;10.47;9.13;;;;;16.10;100871.00;;;;10507490;28;20201;-73
2021/05/01 12:44:55;;;;;;;5.93;5.33;;;;;15.30;100857.00;;;;10520171;28;20189;-73
2021/05/01 12:50:11;;;;;;;5.67;5.07;;;;;14.60;100863.00;;;;10496885;28;20205;-73
2021/05/01 12:55:14;;;;;;;6.60;5.80;;;;;14.10;100849.00;;;;10476747;28;20256;-73
2021/05/01 13:00:25;;;;;;;6.47;5.80;;;;;14.00;100849.00;;;;10498053;28;20529;-73
2021/05/01 13:05:27;;;;;;;6.87;6.13;;;;;14.50;100839.00;;;;10479171;28;20351;-73
2021/05/01 13:10:30;;;;;;;6.67;6.00;;;;;15.00;100828.00;;;;10457158;28;20220;-73
2021/05/01 13:15:59;;;;;;;8.30;6.33;;;;;15.90;100829.00;;;;10499283;28;20204;-73
2021/05/01 13:21:08;;;;;;;6.50;5.90;;;;;17.20;100827.00;;;;10439410;28;20660;-73
2021/05/01 13:26:15;;;;;;;5.43;4.77;;;;;17.50;100817.00;;;;10473590;28;20362;-73
2021/05/01 13:31:18;;;;;;;8.30;5.63;;;;;17.80;100826.00;;;;10435525;28;20221;-73
2021/05/01 13:36:21;;;;;;;6.70;6.00;;;;;16.50;100825.00;;;;10460264;28;20194;-71
2021/05/01 13:41:22;;;;;;;7.93;5.73;;;;;16.10;100824.00;;;;10473200;28;20621;-71
2021/05/01 13:46:30;;;;;;;6.67;5.17;;;;;15.80;100809.00;;;;10478045;28;20695;-73
2021/05/01 13:51:33;;;;;;;7.03;6.33;;;;;15.50;100808.00;;;;10496119;28;20677;-73
2021/05/01 13:56:40;;;;;;;7.27;6.63;;;;;15.30;100817.00;;;;10433334;28;20248;-73
2021/05/01 14:01:46;;;;;;;8.07;6.63;;;;;15.30;100798.00;;;;10438960;28;20189;-72
2021/05/01 14:06:49;;;;;;;8.43;7.57;;;;;15.50;100804.00;;;;10439555;28;20751;-72
2021/05/01 14:11:51;;;;;;;7.30;6.60;;;;;16.00;100805.00;;;;10438744;28;20225;-72
2021/05/01 14:17:06;;;;;;;7.97;7.20;;;;;16.50;100801.00;;;;10457209;28;20901;-73
2021/05/01 14:22:12;;;;;;;8.93;7.40;;;;;17.00;100801.00;;;;10464596;28;20189;-73
2021/05/01 14:27:14;;;;;;;8.50;7.10;;;;;17.60;100795.00;;;;10464155;28;20529;-73
2021/05/01 14:32:18;;;;;;;7.63;6.80;;;;;18.40;100797.00;;;;10423219;28;20202;-73
2021/05/01 14:37:21;;;;;;;9.23;6.30;;;;;20.60;100797.00;;;;10439274;28;20194;-73
2021/05/01 14:42:23;;;;;;;7.60;6.75;;;;;20.90;100796.00;;;;10475925;28;20201;-73
2021/05/01 14:47:27;;;;;;;6.35;5.72;;;;;22.30;100782.00;;;;10479052;28;20213;-73
2021/05/01 14:52:34;;;;;;;7.55;6.18;;;;;22.00;100797.00;;;;10487088;28;20244;-73
2021/05/01 14:57:36;;;;;;;7.50;6.80;;;;;18.50;100799.00;;;;10465114;28;20715;-73
2021/05/01 15:02:46;;;;;;;5.93;5.43;;;;;23.60;100800.00;;;;10437981;28;20198;-73
2021/05/01 15:07:55;;;;;;;6.53;5.97;;;;;19.50;100799.00;;;;10437582;28;20218;-73
2021/05/01 15:13:06;;;;;;;7.17;6.47;;;;;17.10;100808.00;;;;10471050;28;20293;-73
2021/05/01 15:18:14;;;;;;;10.70;6.63;;;;;16.70;100799.00;;;;10453893;28;20204;-72
2021/05/01 15:23:16;;;;;;;8.03;7.13;;;;;20.20;100795.00;;;;10473143;28;20198;-73
2021/05/01 15:28:19;;;;;;;6.53;6.03;;;;;19.20;100809.00;;;;10479207;28;20221;-72
2021/05/01 15:33:26;;;;;;;8.40;6.87;;;;;17.30;100807.00;;;;10457946;28;20194;-71
2021/05/01 15:38:28;;;;;;;7.70;6.27;;;;;15.70;100806.00;;;;10455689;28;20236;-72
2021/05/01 15:43:30;;;;;;;7.27;6.50;;;;;14.90;100801.00;;;;10420698;28;20637;-72
2021/05/01 15:48:34;;;;;;;7.60;6.23;;;;;16.00;100797.00;;;;10439117;28;20218;-72
2021/05/01 15:53:35;;;;;;;6.27;5.50;;;;;17.40;100800.00;;;;10478277;28;20749;-71
2021/05/01 15:58:37;;;;;;;7.67;6.03;;;;;16.90;100796.00;;;;10494940;28;20192;-72
2021/05/01 16:03:39;;;;;;;6.77;6.07;;;;;17.60;100801.00;;;;10478918;28;20284;-72
2021/05/01 16:08:41;;;;;;;6.93;5.73;;;;;15.80;100797.00;;;;10478669;28;20214;-73
2021/05/01 16:13:43;;;;;;;7.43;5.77;;;;;14.80;100798.00;;;;10478761;28;20197;-73
2021/05/01 16:18:45;;;;;;;5.53;5.03;;;;;14.20;100802.00;;;;10445172;28;20196;-72
2021/05/01 16:23:46;;;;;;;7.67;5.90;;;;;14.30;100796.00;;;;10477694;28;20213;-73
2021/05/01 16:28:47;;;;;;;7.40;4.93;;;;;14.60;100796.00;;;;10477957;28;20669;-72
2021/05/01 16:33:49;;;;;;;7.23;5.50;;;;;14.50;100795.00;;;;10470465;28;20248;-72
2021/05/01 16:38:50;;;;;;;7.00;5.57;;;;;14.70;100793.00;;;;10444646;28;20182;-72
2021/05/01 16:43:51;;;;;;;5.93;5.33;;;;;14.70;100803.00;;;;10427499;28;20197;-72
2021/05/01 16:48:53;;;;;;;7.93;4.77;;;;;14.80;100797.00;;;;10461219;28;20263;-72
2021/05/01 16:53:56;;;;;;;5.80;4.87;;;;;15.00;100797.00;;;;10430316;28;20296;-72
2021/05/01 16:58:58;;;;;;;5.60;4.50;;;;;14.60;100804.00;;;;10467895;28;20533;-72
2021/05/01 17:04:00;;;;;;;5.37;4.47;;;;;14.10;100817.00;;;;10484639;28;20193;-72
2021/05/01 17:09:04;;;;;;;6.10;4.80;;;;;13.40;100820.00;;;;10483950;28;20971;-72
2021/05/01 17:14:05;;;;;;;6.50;4.93;;;;;12.90;100824.00;;;;10484021;28;20193;-72
2021/05/01 17:19:07;;;;;;;5.17;4.77;;;;;12.90;100821.00;;;;10501016;28;20194;-73
2021/05/01 17:24:08;;;;;;;6.00;4.67;;;;;12.70;100821.00;;;;10467549;28;20258;-72
2021/05/01 17:29:10;;;;;;;5.17;4.47;;;;;12.50;100819.00;;;;10501939;28;20206;-72
2021/05/01 17:34:11;;;;;;;5.03;4.57;;;;;12.30;100822.00;;;;10459115;28;20243;-73
2021/05/01 17:39:13;;;;;;;7.97;4.43;;;;;12.10;100831.00;;;;10482646;28;20208;-74
2021/05/01 17:44:15;;;;;;;6.43;4.83;;;;;11.90;100848.00;;;;10516484;28;20197;-74
2021/05/01 17:49:16;;;;;;;4.97;4.47;;;;;11.70;100857.00;;;;10465162;28;20224;-73
2021/05/01 17:54:18;;;;;;;5.40;4.00;;;;;11.40;100865.00;;;;10473177;28;20229;-74
2021/05/01 17:59:19;;;;;;;4.20;3.63;;;;;11.20;100864.00;;;;10541496;28;20198;-73
2021/05/01 18:04:21;;;;;;;5.53;3.70;;;;;11.10;100868.00;;;;10488833;28;20229;-74
2021/05/01 18:09:22;;;;;;;5.70;3.60;;;;;10.90;100875.00;;;;10498989;28;20229;-74
2021/05/01 18:14:23;;;;;;;4.93;4.17;;;;;10.70;100884.00;;;;10457149;28;20283;-73
2021/05/01 18:19:25;;;;;;;7.50;3.83;;;;;10.60;100890.00;;;;10462398;28;20193;-73
2021/05/01 18:24:27;;;;;;;5.53;4.43;;;;;10.40;100900.00;;;;10481262;28;20636;-74
2021/05/01 18:29:30;;;;;;;6.40;4.63;;;;;10.30;100906.00;;;;10481022;28;20206;-74
2021/05/01 18:34:31;;;;;;;5.27;4.17;;;;;10.10;100908.00;;;;10480942;28;20220;-74
2021/05/01 18:39:35;;;;;;;6.97;4.10;;;;;9.80;100914.00;;;;10423207;28;20259;-74
2021/05/01 18:44:36;;;;;;;6.23;4.93;;;;;9.60;100917.00;;;;10439384;28;20293;-73
2021/05/01 18:49:37;;;;;;;4.83;4.20;;;;;9.40;100923.00;;;;10422859;28;20221;-73
2021/05/01 18:54:39;;;;;;;4.70;4.13;;;;;9.10;100929.00;;;;10465497;28;20201;-74
2021/05/01 18:59:40;;;;;;;5.77;5.20;;;;;9.00;100935.00;;;;10481071;28;20185;-74
2021/05/01 19:04:42;;;;;;;5.80;4.60;;;;;8.70;100942.00;;;;10463199;28;20217;-73
2021/05/01 19:09:45;;;;;;;6.37;4.97;;;;;8.50;100945.00;;;;10447709;28;20205;-74
2021/05/01 19:14:47;;;;;;;8.53;5.30;;;;;8.40;100939.00;;;;10513571;28;20208;-73
2021/05/01 19:19:48;;;;;;;5.87;4.90;;;;;8.30;100950.00;;;;10463873;28;20192;-73
2021/05/01 19:24:50;;;;;;;6.80;4.67;;;;;8.10;100958.00;;;;10462929;28;20197;-73
2021/05/01 19:29:56;;;;;;;7.83;5.03;;;;;8.00;100960.00;;;;10479036;28;20327;-73
2021/05/01 19:34:58;;;;;;;8.63;5.73;;;;;7.80;100977.00;;;;10462174;28;20221;-73
2021/05/01 19:39:59;;;;;;;8.90;5.20;;;;;7.70;100975.00;;;;10479253;28;20668;-73
2021/05/01 19:45:04;;;;;;;5.40;4.43;;;;;7.60;100972.00;;;;10462488;28;20215;-73
2021/05/01 19:50:07;;;;;;;5.63;4.80;;;;;7.60;100986.00;;;;10462353;28;20213;-73
2021/05/01 19:55:09;;;;;;;7.70;4.77;;;;;7.40;100994.00;;;;10478492;28;20233;-73
2021/05/01 20:00:13;;;;;;;6.67;5.67;;;;;7.30;100999.00;;;;10478250;28;20182;-73
2021/05/01 20:05:15;;;;;;;8.20;5.03;;;;;7.20;100990.00;;;;10421508;28;20214;-73
2021/05/01 20:10:36;;;;;;;8.83;5.87;;;;;7.10;100997.00;;;;10423172;28;20209;-73
2021/05/01 20:15:39;;;;;;;8.23;6.80;;;;;7.00;101017.00;;;;10428551;28;20220;-73
2021/05/01 20:20:40;;;;;;;11.33;6.67;;;;;6.90;101012.00;;;;10412297;28;20684;-73
2021/05/01 20:25:42;;;;;;;10.20;7.07;;;;;6.80;101013.00;;;;10497258;28;20611;-73
2021/05/01 20:30:43;;;;;;;10.60;7.87;;;;;6.70;101009.00;;;;10486001;28;20213;-73
2021/05/01 20:35:47;;;;;;;10.43;7.70;;;;;6.60;101019.00;;;;10503526;28;20209;-73
2021/05/01 20:40:48;;;;;;;12.13;7.90;;;;;6.50;101027.00;;;;10501968;28;20185;-73
2021/05/01 20:45:50;;;;;;;10.50;8.33;;;;;6.30;101025.00;;;;10468039;28;20201;-73
2021/05/01 20:50:52;;;;;;;12.57;10.27;;;;;6.20;101024.00;;;;10468508;28;20213;-73
2021/05/01 20:55:53;;;;;;;13.93;10.53;;;;;6.00;101033.00;;;;10484472;28;20255;-73
2021/05/01 21:00:55;;;;;;;12.97;9.50;;;;;5.90;101030.00;;;;10468767;28;20197;-73
2021/05/01 21:05:56;;;;;;;11.50;9.53;;;;;5.90;101024.00;;;;10451599;28;20213;-73
2021/05/01 21:10:57;;;;;;;15.70;9.60;;;;;5.80;101035.00;;;;10468247;28;20213;-73
2021/05/01 21:16:03;;;;;;;12.17;9.47;;;;;5.80;101029.00;;;;10500192;28;20209;-73
2021/05/01 21:21:05;;;;;;;14.67;11.23;;;;;5.70;101031.00;;;;10482900;28;20243;-73
2021/05/01 21:26:06;;;;;;;20.13;15.90;;;;;5.70;101028.00;;;;10524707;28;20203;-73
2021/05/01 21:31:07;;;;;;;24.63;20.20;;;;;5.60;101030.00;;;;10509321;28;20213;-73
2021/05/01 21:36:11;;;;;;;24.30;17.97;;;;;5.60;101035.00;;;;10492358;28;20242;-73
2021/05/01 21:41:13;;;;;;;20.23;14.73;;;;;5.50;101028.00;;;;10525140;28;20185;-73
2021/05/01 21:46:14;;;;;;;16.03;13.67;;;;;5.40;101047.00;;;;10524969;28;20193;-73
2021/05/01 21:51:17;;;;;;;18.87;13.57;;;;;5.30;101040.00;;;;10507881;28;20215;-73
2021/05/01 21:56:19;;;;;;;17.47;13.97;;;;;5.10;101039.00;;;;10500761;28;20596;-73
2021/05/01 22:01:25;;;;;;;20.53;13.80;;;;;5.00;101043.00;;;;10466530;28;20602;-73
2021/05/01 22:06:28;;;;;;;21.63;13.60;;;;;4.90;101048.00;;;;10465394;28;20262;-73
2021/05/01 22:11:32;;;;;;;19.27;14.13;;;;;5.00;101044.00;;;;10464924;28;20217;-73
2021/05/01 22:16:34;;;;;;;18.60;15.17;;;;;5.00;101053.00;;;;10448280;28;20201;-73
2021/05/01 22:21:48;;;;;;;19.23;15.07;;;;;5.00;101054.00;;;;10464917;28;20602;-72
2021/05/01 22:26:49;;;;;;;21.33;14.97;;;;;4.90;101058.00;;;;10464442;28;20285;-73
2021/05/01 22:31:51;;;;;;;19.83;14.33;;;;;4.80;101059.00;;;;10480922;28;20213;-72
2021/05/01 22:36:52;;;;;;;20.13;14.07;;;;;4.70;101060.00;;;;10480794;28;20225;-72
2021/05/01 22:41:54;;;;;;;19.33;14.23;;;;;4.70;101073.00;;;;10481018;28;20189;-72
2021/05/01 22:46:55;;;;;;;20.03;14.90;;;;;4.60;101058.00;;;;10497133;28;20209;-72
2021/05/01 22:51:57;;;;;;;23.27;15.83;;;;;4.60;101073.00;;;;10463750;28;20225;-72
2021/05/01 22:56:58;;;;;;;21.53;16.73;;;;;4.60;101081.00;;;;10463705;28;20652;-72
2021/05/01 23:02:00;;;;;;;21.53;16.67;;;;;4.50;101083.00;;;;10480655;28;20238;-72
2021/05/01 23:07:02;;;;;;;24.40;17.63;;;;;4.50;101077.00;;;;10513266;28;20703;-72
2021/05/01 23:12:05;;;;;;;21.80;17.80;;;;;4.50;101084.00;;;;10479621;28;20228;-72
2021/05/01 23:17:08;;;;;;;24.30;18.67;;;;;4.40;101090.00;;;;10480049;28;20193;-72
2021/05/01 23:22:10;;;;;;;23.97;17.83;;;;;4.40;101093.00;;;;10479982;28;20190;-72
2021/05/01 23:27:13;;;;;;;26.73;18.73;;;;;4.40;101092.00;;;;10476102;28;20579;-72
2021/05/01 23:32:15;;;;;;;27.13;19.10;;;;;4.40;101106.00;;;;10496405;28;20209;-72
2021/05/01 23:37:17;;;;;;;28.53;19.90;;;;;4.50;101103.00;;;;10479086;28;20691;-72
2021/05/01 23:42:18;;;;;;;25.23;19.60;;;;;4.50;101112.00;;;;10479873;28;20193;-72
2021/05/01 23:47:20;;;;;;;28.70;22.00;;;;;4.60;101108.00;;;;10484406;28;20200;-72
2021/05/01 23:52:22;;;;;;;26.13;19.43;;;;;4.80;101119.00;;;;10505056;28;20296;-72
2021/05/01 23:57:27;;;;;;;28.37;20.80;;;;;5.00;101114.00;;;;10470800;28;20259;-72
